sensor_id;sensor_type;location;lat;lon;timestamp;temperature;humidity
54642;DHT22;40536;53.194;5.728;2022-07-29T00:00:40;14.90;99.90
54642;DHT22;40536;53.194;5.728;2022-07-29T00:03:06;14.90;99.90
54642;DHT22;40536;53.194;5.728;2022-07-29T00:05:31;14.90;99.90
54642;DHT22;40536;53.194;5.728;2022-07-29T00:07:57;14.90;99.90
54642;DHT22;40536;53.194;5.728;2022-07-29T00:10:23;14.90;99.90
54642;DHT22;40536;53.194;5.728;2022-07-29T00:12:48;14.90;99.90
54642;DHT22;40536;53.194;5.728;2022-07-29T00:15:14;14.90;99.90
54642;DHT22;40536;53.194;5.728;2022-07-29T00:17:40;14.90;99.90
54642;DHT22;40536;53.194;5.728;2022-07-29T00:20:06;14.90;99.90
54642;DHT22;40536;53.194;5.728;2022-07-29T00:22:32;14.90;99.90
54642;DHT22;40536;53.194;5.728;2022-07-29T00:24:57;14.90;99.90
54642;DHT22;40536;53.194;5.728;2022-07-29T00:27:23;15.00;99.90
54642;DHT22;40536;53.194;5.728;2022-07-29T00:29:49;14.90;99.90
54642;DHT22;40536;53.194;5.728;2022-07-29T00:32:14;15.30;99.90
54642;DHT22;40536;53.194;5.728;2022-07-29T00:34:40;15.00;99.90
54642;DHT22;40536;53.194;5.728;2022-07-29T00:37:25;15.00;99.90
54642;DHT22;40536;53.194;5.728;2022-07-29T00:39:50;15.00;99.90
54642;DHT22;40536;53.194;5.728;2022-07-29T00:42:16;15.10;99.90
54642;DHT22;40536;53.194;5.728;2022-07-29T00:44:43;15.00;99.90
54642;DHT22;40536;53.194;5.728;2022-07-29T00:47:11;15.00;99.90
54642;DHT22;40536;53.194;5.728;2022-07-29T00:49:39;15.00;99.90
54642;DHT22;40536;53.194;5.728;2022-07-29T00:52:06;15.00;99.90
54642;DHT22;40536;53.194;5.728;2022-07-29T00:54:33;15.10;99.90
54642;DHT22;40536;53.194;5.728;2022-07-29T00:56:59;15.10;99.90
54642;DHT22;40536;53.194;5.728;2022-07-29T00:59:26;15.10;99.90
54642;DHT22;40536;53.194;5.728;2022-07-29T01:01:53;15.40;99.90
54642;DHT22;40536;53.194;5.728;2022-07-29T01:04:20;15.10;99.90
54642;DHT22;40536;53.194;5.728;2022-07-29T01:06:47;15.10;99.90
54642;DHT22;40536;53.194;5.728;2022-07-29T01:09:14;15.10;99.90
54642;DHT22;40536;53.194;5.728;2022-07-29T01:11:40;15.10;99.90
54642;DHT22;40536;53.194;5.728;2022-07-29T01:14:07;15.10;99.90
54642;DHT22;40536;53.194;5.728;2022-07-29T01:16:50;15.10;99.90
54642;DHT22;40536;53.194;5.728;2022-07-29T01:19:48;15.10;99.90
54642;DHT22;40536;53.194;5.728;2022-07-29T01:22:33;15.20;99.90
54642;DHT22;40536;53.194;5.728;2022-07-29T01:27:48;15.20;99.90
54642;DHT22;40536;53.194;5.728;2022-07-29T01:30:16;15.20;99.90
54642;DHT22;40536;53.194;5.728;2022-07-29T01:32:44;15.20;99.90
54642;DHT22;40536;53.194;5.728;2022-07-29T01:35:16;15.20;99.90
54642;DHT22;40536;53.194;5.728;2022-07-29T01:37:54;15.20;99.90
54642;DHT22;40536;53.194;5.728;2022-07-29T01:40:24;15.20;99.90
54642;DHT22;40536;53.194;5.728;2022-07-29T01:42:55;15.20;99.90
54642;DHT22;40536;53.194;5.728;2022-07-29T01:45:28;15.40;99.90
54642;DHT22;40536;53.194;5.728;2022-07-29T01:48:00;15.20;99.90
54642;DHT22;40536;53.194;5.728;2022-07-29T01:50:33;15.20;99.90
54642;DHT22;40536;53.194;5.728;2022-07-29T01:53:02;15.20;99.90
54642;DHT22;40536;53.194;5.728;2022-07-29T01:55:31;15.20;99.90
54642;DHT22;40536;53.194;5.728;2022-07-29T01:58:00;15.20;99.90
54642;DHT22;40536;53.194;5.728;2022-07-29T02:00:27;15.20;99.90
54642;DHT22;40536;53.194;5.728;2022-07-29T02:02:54;15.20;99.90
54642;DHT22;40536;53.194;5.728;2022-07-29T02:05:21;15.10;99.90
54642;DHT22;40536;53.194;5.728;2022-07-29T02:07:50;15.20;99.90
54642;DHT22;40536;53.194;5.728;2022-07-29T02:10:21;15.40;99.90
54642;DHT22;40536;53.194;5.728;2022-07-29T02:12:48;15.20;99.90
54642;DHT22;40536;53.194;5.728;2022-07-29T02:15:16;15.20;99.90
54642;DHT22;40536;53.194;5.728;2022-07-29T02:17:46;15.30;99.90
54642;DHT22;40536;53.194;5.728;2022-07-29T02:20:15;15.20;99.90
54642;DHT22;40536;53.194;5.728;2022-07-29T02:22:41;15.30;99.90
54642;DHT22;40536;53.194;5.728;2022-07-29T02:25:08;15.20;99.90
54642;DHT22;40536;53.194;5.728;2022-07-29T02:27:37;15.20;99.90
54642;DHT22;40536;53.194;5.728;2022-07-29T02:30:04;15.20;99.90
54642;DHT22;40536;53.194;5.728;2022-07-29T02:32:34;15.20;99.90
54642;DHT22;40536;53.194;5.728;2022-07-29T02:35:01;15.20;99.90
54642;DHT22;40536;53.194;5.728;2022-07-29T02:37:28;15.20;99.90
54642;DHT22;40536;53.194;5.728;2022-07-29T02:39:55;15.20;99.90
54642;DHT22;40536;53.194;5.728;2022-07-29T02:42:23;15.20;99.90
54642;DHT22;40536;53.194;5.728;2022-07-29T02:44:49;15.20;99.90
54642;DHT22;40536;53.194;5.728;2022-07-29T03:00:53;15.10;99.90
54642;DHT22;40536;53.194;5.728;2022-07-29T03:03:21;15.10;99.90
54642;DHT22;40536;53.194;5.728;2022-07-29T03:05:47;15.10;99.90
54642;DHT22;40536;53.194;5.728;2022-07-29T03:08:14;15.10;99.90
54642;DHT22;40536;53.194;5.728;2022-07-29T03:10:43;15.00;99.90
54642;DHT22;40536;53.194;5.728;2022-07-29T03:13:10;15.00;99.90
54642;DHT22;40536;53.194;5.728;2022-07-29T03:15:36;15.00;99.90
54642;DHT22;40536;53.194;5.728;2022-07-29T03:18:02;15.00;99.90
54642;DHT22;40536;53.194;5.728;2022-07-29T03:20:29;15.00;99.90
54642;DHT22;40536;53.194;5.728;2022-07-29T03:22:54;15.00;99.90
54642;DHT22;40536;53.194;5.728;2022-07-29T03:25:20;14.90;99.90
54642;DHT22;40536;53.194;5.728;2022-07-29T03:27:47;15.20;99.90
54642;DHT22;40536;53.194;5.728;2022-07-29T03:30:13;14.90;99.90
54642;DHT22;40536;53.194;5.728;2022-07-29T03:32:39;14.90;99.90
54642;DHT22;40536;53.194;5.728;2022-07-29T03:35:06;14.90;99.90
54642;DHT22;40536;53.194;5.728;2022-07-29T03:37:32;14.90;99.90
54642;DHT22;40536;53.194;5.728;2022-07-29T03:40:00;14.90;99.90
54642;DHT22;40536;53.194;5.728;2022-07-29T03:42:30;15.00;99.90
54642;DHT22;40536;53.194;5.728;2022-07-29T03:44:57;14.90;99.90
54642;DHT22;40536;53.194;5.728;2022-07-29T03:47:26;14.90;99.90
54642;DHT22;40536;53.194;5.728;2022-07-29T03:49:59;14.90;99.90
54642;DHT22;40536;53.194;5.728;2022-07-29T03:52:25;14.80;99.90
54642;DHT22;40536;53.194;5.728;2022-07-29T03:54:51;14.90;99.90
54642;DHT22;40536;53.194;5.728;2022-07-29T03:57:20;14.90;99.90
54642;DHT22;40536;53.194;5.728;2022-07-29T03:59:49;14.80;99.90
54642;DHT22;40536;53.194;5.728;2022-07-29T04:02:16;14.90;99.90
54642;DHT22;40536;53.194;5.728;2022-07-29T04:04:42;14.80;99.90
54642;DHT22;40536;53.194;5.728;2022-07-29T04:07:12;14.90;99.90
54642;DHT22;40536;53.194;5.728;2022-07-29T04:09:38;14.90;99.90
54642;DHT22;40536;53.194;5.728;2022-07-29T04:12:04;14.90;99.90
54642;DHT22;40536;53.194;5.728;2022-07-29T04:14:33;14.90;99.90
54642;DHT22;40536;53.194;5.728;2022-07-29T04:17:04;14.90;99.90
54642;DHT22;40536;53.194;5.728;2022-07-29T04:19:30;14.90;99.90
54642;DHT22;40536;53.194;5.728;2022-07-29T04:21:57;14.90;99.90
54642;DHT22;40536;53.194;5.728;2022-07-29T04:24:22;15.00;99.90
54642;DHT22;40536;53.194;5.728;2022-07-29T04:26:48;15.00;99.90
54642;DHT22;40536;53.194;5.728;2022-07-29T04:29:14;15.00;99.90
54642;DHT22;40536;53.194;5.728;2022-07-29T04:31:43;15.00;99.90
54642;DHT22;40536;53.194;5.728;2022-07-29T04:34:10;15.10;99.90
54642;DHT22;40536;53.194;5.728;2022-07-29T04:36:36;15.10;99.90
54642;DHT22;40536;53.194;5.728;2022-07-29T04:39:02;15.20;99.90
54642;DHT22;40536;53.194;5.728;2022-07-29T04:41:28;15.20;99.90
54642;DHT22;40536;53.194;5.728;2022-07-29T04:43:54;15.20;99.90
54642;DHT22;40536;53.194;5.728;2022-07-29T04:46:20;15.30;99.90
54642;DHT22;40536;53.194;5.728;2022-07-29T04:48:46;15.30;99.90
54642;DHT22;40536;53.194;5.728;2022-07-29T04:51:13;15.40;99.90
54642;DHT22;40536;53.194;5.728;2022-07-29T04:53:39;15.40;99.90
54642;DHT22;40536;53.194;5.728;2022-07-29T04:56:04;15.40;99.90
54642;DHT22;40536;53.194;5.728;2022-07-29T04:58:30;15.40;99.90
54642;DHT22;40536;53.194;5.728;2022-07-29T05:00:56;15.40;99.90
54642;DHT22;40536;53.194;5.728;2022-07-29T05:03:22;15.40;99.90
54642;DHT22;40536;53.194;5.728;2022-07-29T05:05:47;15.50;99.90
54642;DHT22;40536;53.194;5.728;2022-07-29T05:08:13;15.50;99.90
54642;DHT22;40536;53.194;5.728;2022-07-29T05:10:39;15.50;99.90
54642;DHT22;40536;53.194;5.728;2022-07-29T05:13:05;15.50;99.90
54642;DHT22;40536;53.194;5.728;2022-07-29T05:15:35;15.50;99.90
54642;DHT22;40536;53.194;5.728;2022-07-29T05:18:01;15.60;99.90
54642;DHT22;40536;53.194;5.728;2022-07-29T05:20:27;15.70;99.90
54642;DHT22;40536;53.194;5.728;2022-07-29T05:22:56;15.70;99.90
54642;DHT22;40536;53.194;5.728;2022-07-29T05:25:23;15.80;99.90
54642;DHT22;40536;53.194;5.728;2022-07-29T05:27:49;15.90;99.90
54642;DHT22;40536;53.194;5.728;2022-07-29T05:30:15;16.00;99.90
54642;DHT22;40536;53.194;5.728;2022-07-29T05:32:41;16.10;99.90
54642;DHT22;40536;53.194;5.728;2022-07-29T05:35:07;16.10;99.90
54642;DHT22;40536;53.194;5.728;2022-07-29T05:37:33;16.20;99.90
54642;DHT22;40536;53.194;5.728;2022-07-29T05:39:59;16.20;99.90
54642;DHT22;40536;53.194;5.728;2022-07-29T05:42:25;16.30;99.90
54642;DHT22;40536;53.194;5.728;2022-07-29T05:44:51;16.30;99.90
54642;DHT22;40536;53.194;5.728;2022-07-29T05:47:17;16.40;99.90
54642;DHT22;40536;53.194;5.728;2022-07-29T05:49:43;16.40;99.90
54642;DHT22;40536;53.194;5.728;2022-07-29T05:52:08;16.60;99.90
54642;DHT22;40536;53.194;5.728;2022-07-29T05:54:35;16.70;99.90
54642;DHT22;40536;53.194;5.728;2022-07-29T05:57:00;16.70;99.90
54642;DHT22;40536;53.194;5.728;2022-07-29T05:59:27;16.80;99.90
54642;DHT22;40536;53.194;5.728;2022-07-29T06:01:52;16.80;99.90
54642;DHT22;40536;53.194;5.728;2022-07-29T06:04:18;17.00;99.90
54642;DHT22;40536;53.194;5.728;2022-07-29T06:06:43;17.10;99.90
54642;DHT22;40536;53.194;5.728;2022-07-29T06:09:09;17.40;99.90
54642;DHT22;40536;53.194;5.728;2022-07-29T06:11:35;17.70;99.90
54642;DHT22;40536;53.194;5.728;2022-07-29T06:14:00;18.20;99.90
54642;DHT22;40536;53.194;5.728;2022-07-29T06:16:28;18.50;99.90
54642;DHT22;40536;53.194;5.728;2022-07-29T06:18:54;18.90;99.90
54642;DHT22;40536;53.194;5.728;2022-07-29T06:21:19;19.20;99.90
54642;DHT22;40536;53.194;5.728;2022-07-29T06:23:45;19.50;99.90
54642;DHT22;40536;53.194;5.728;2022-07-29T06:26:11;19.60;99.90
54642;DHT22;40536;53.194;5.728;2022-07-29T06:28:36;19.70;99.90
54642;DHT22;40536;53.194;5.728;2022-07-29T06:31:02;19.70;99.90
54642;DHT22;40536;53.194;5.728;2022-07-29T06:33:28;19.80;99.90
54642;DHT22;40536;53.194;5.728;2022-07-29T06:35:53;19.80;99.90
54642;DHT22;40536;53.194;5.728;2022-07-29T06:38:20;19.80;99.90
54642;DHT22;40536;53.194;5.728;2022-07-29T06:40:46;19.80;99.90
54642;DHT22;40536;53.194;5.728;2022-07-29T06:43:35;19.80;99.90
54642;DHT22;40536;53.194;5.728;2022-07-29T06:46:07;19.80;99.90
54642;DHT22;40536;53.194;5.728;2022-07-29T06:48:34;19.80;99.90
54642;DHT22;40536;53.194;5.728;2022-07-29T06:51:02;19.80;99.90
54642;DHT22;40536;53.194;5.728;2022-07-29T06:53:28;19.80;99.90
54642;DHT22;40536;53.194;5.728;2022-07-29T06:55:54;19.70;99.90
54642;DHT22;40536;53.194;5.728;2022-07-29T06:58:19;19.90;99.90
54642;DHT22;40536;53.194;5.728;2022-07-29T07:00:48;20.00;99.90
54642;DHT22;40536;53.194;5.728;2022-07-29T07:03:15;20.30;99.90
54642;DHT22;40536;53.194;5.728;2022-07-29T07:05:41;20.50;99.90
54642;DHT22;40536;53.194;5.728;2022-07-29T07:08:06;20.60;99.90
54642;DHT22;40536;53.194;5.728;2022-07-29T07:10:32;20.80;99.90
54642;DHT22;40536;53.194;5.728;2022-07-29T07:12:59;20.90;99.90
54642;DHT22;40536;53.194;5.728;2022-07-29T07:15:24;21.10;99.90
54642;DHT22;40536;53.194;5.728;2022-07-29T07:17:50;21.20;99.90
54642;DHT22;40536;53.194;5.728;2022-07-29T07:20:17;21.30;99.90
54642;DHT22;40536;53.194;5.728;2022-07-29T07:22:42;21.30;99.90
54642;DHT22;40536;53.194;5.728;2022-07-29T07:25:08;21.10;99.90
54642;DHT22;40536;53.194;5.728;2022-07-29T07:27:34;21.00;99.90
54642;DHT22;40536;53.194;5.728;2022-07-29T07:30:00;20.90;99.90
54642;DHT22;40536;53.194;5.728;2022-07-29T07:32:26;20.80;99.90
54642;DHT22;40536;53.194;5.728;2022-07-29T07:34:51;20.70;99.90
54642;DHT22;40536;53.194;5.728;2022-07-29T07:37:17;20.60;99.90
54642;DHT22;40536;53.194;5.728;2022-07-29T07:39:46;20.40;99.90
54642;DHT22;40536;53.194;5.728;2022-07-29T07:42:11;20.30;99.90
54642;DHT22;40536;53.194;5.728;2022-07-29T07:44:39;20.20;99.90
54642;DHT22;40536;53.194;5.728;2022-07-29T07:47:05;20.20;99.90
54642;DHT22;40536;53.194;5.728;2022-07-29T07:49:31;20.10;99.90
54642;DHT22;40536;53.194;5.728;2022-07-29T07:51:56;20.00;99.90
54642;DHT22;40536;53.194;5.728;2022-07-29T07:54:22;19.90;99.90
54642;DHT22;40536;53.194;5.728;2022-07-29T07:56:48;19.80;99.90
54642;DHT22;40536;53.194;5.728;2022-07-29T07:59:16;19.80;99.90
54642;DHT22;40536;53.194;5.728;2022-07-29T08:01:42;19.80;99.90
54642;DHT22;40536;53.194;5.728;2022-07-29T08:04:08;19.80;99.90
54642;DHT22;40536;53.194;5.728;2022-07-29T08:06:34;19.80;99.90
54642;DHT22;40536;53.194;5.728;2022-07-29T08:09:03;19.90;99.90
54642;DHT22;40536;53.194;5.728;2022-07-29T08:11:28;19.90;99.90
54642;DHT22;40536;53.194;5.728;2022-07-29T08:13:54;20.10;99.90
54642;DHT22;40536;53.194;5.728;2022-07-29T08:16:20;20.20;99.90
54642;DHT22;40536;53.194;5.728;2022-07-29T08:18:46;20.40;99.90
54642;DHT22;40536;53.194;5.728;2022-07-29T08:21:13;20.60;99.90
54642;DHT22;40536;53.194;5.728;2022-07-29T08:23:39;20.80;99.90
54642;DHT22;40536;53.194;5.728;2022-07-29T08:26:10;21.20;99.90
54642;DHT22;40536;53.194;5.728;2022-07-29T08:28:41;21.60;99.90
54642;DHT22;40536;53.194;5.728;2022-07-29T08:31:10;22.10;99.90
54642;DHT22;40536;53.194;5.728;2022-07-29T08:33:35;22.80;99.90
54642;DHT22;40536;53.194;5.728;2022-07-29T08:36:01;23.30;99.90
54642;DHT22;40536;53.194;5.728;2022-07-29T08:38:27;24.30;99.90
54642;DHT22;40536;53.194;5.728;2022-07-29T08:40:53;25.00;99.90
54642;DHT22;40536;53.194;5.728;2022-07-29T08:43:19;25.00;99.90
54642;DHT22;40536;53.194;5.728;2022-07-29T08:45:47;24.60;99.90
54642;DHT22;40536;53.194;5.728;2022-07-29T08:48:22;24.20;99.90
54642;DHT22;40536;53.194;5.728;2022-07-29T08:50:52;23.90;99.90
54642;DHT22;40536;53.194;5.728;2022-07-29T08:53:19;23.50;99.90
54642;DHT22;40536;53.194;5.728;2022-07-29T08:55:48;23.20;99.90
54642;DHT22;40536;53.194;5.728;2022-07-29T08:58:15;22.70;99.90
54642;DHT22;40536;53.194;5.728;2022-07-29T09:00:46;22.50;99.90
54642;DHT22;40536;53.194;5.728;2022-07-29T09:03:15;22.30;99.90
54642;DHT22;40536;53.194;5.728;2022-07-29T09:05:43;22.20;99.90
54642;DHT22;40536;53.194;5.728;2022-07-29T09:08:10;22.00;99.90
54642;DHT22;40536;53.194;5.728;2022-07-29T09:10:37;21.90;99.90
54642;DHT22;40536;53.194;5.728;2022-07-29T09:13:02;21.90;99.90
54642;DHT22;40536;53.194;5.728;2022-07-29T09:15:28;21.80;99.90
54642;DHT22;40536;53.194;5.728;2022-07-29T09:17:54;21.80;99.90
54642;DHT22;40536;53.194;5.728;2022-07-29T09:20:22;21.80;99.90
54642;DHT22;40536;53.194;5.728;2022-07-29T09:22:49;21.70;99.90
54642;DHT22;40536;53.194;5.728;2022-07-29T09:25:45;21.70;99.90
54642;DHT22;40536;53.194;5.728;2022-07-29T09:28:16;21.50;99.90
54642;DHT22;40536;53.194;5.728;2022-07-29T09:30:56;21.60;99.90
54642;DHT22;40536;53.194;5.728;2022-07-29T09:33:23;21.70;99.90
54642;DHT22;40536;53.194;5.728;2022-07-29T09:36:06;21.70;99.90
54642;DHT22;40536;53.194;5.728;2022-07-29T09:38:34;21.90;99.90
54642;DHT22;40536;53.194;5.728;2022-07-29T09:41:02;22.10;99.90
54642;DHT22;40536;53.194;5.728;2022-07-29T09:43:27;22.10;99.90
54642;DHT22;40536;53.194;5.728;2022-07-29T09:45:54;22.10;99.90
54642;DHT22;40536;53.194;5.728;2022-07-29T09:48:24;22.10;99.90
54642;DHT22;40536;53.194;5.728;2022-07-29T09:50:50;22.20;99.90
54642;DHT22;40536;53.194;5.728;2022-07-29T09:53:35;22.20;99.90
54642;DHT22;40536;53.194;5.728;2022-07-29T09:56:01;22.20;99.90
54642;DHT22;40536;53.194;5.728;2022-07-29T09:58:27;22.20;99.90
54642;DHT22;40536;53.194;5.728;2022-07-29T10:00:54;22.10;99.90
54642;DHT22;40536;53.194;5.728;2022-07-29T10:03:21;22.10;99.90
54642;DHT22;40536;53.194;5.728;2022-07-29T10:06:05;22.00;99.90
54642;DHT22;40536;53.194;5.728;2022-07-29T10:08:31;22.00;99.90
54642;DHT22;40536;53.194;5.728;2022-07-29T10:11:15;21.90;99.90
54642;DHT22;40536;53.194;5.728;2022-07-29T10:13:44;21.80;99.90
54642;DHT22;40536;53.194;5.728;2022-07-29T10:16:11;21.70;99.90
54642;DHT22;40536;53.194;5.728;2022-07-29T10:18:38;21.60;99.90
54642;DHT22;40536;53.194;5.728;2022-07-29T10:21:05;21.40;99.90
54642;DHT22;40536;53.194;5.728;2022-07-29T10:23:31;21.30;99.90
54642;DHT22;40536;53.194;5.728;2022-07-29T10:25:57;21.00;99.90
54642;DHT22;40536;53.194;5.728;2022-07-29T10:28:23;21.00;99.90
54642;DHT22;40536;53.194;5.728;2022-07-29T10:30:51;20.80;99.90
54642;DHT22;40536;53.194;5.728;2022-07-29T10:33:41;20.70;99.90
54642;DHT22;40536;53.194;5.728;2022-07-29T10:41:43;20.30;99.90
54642;DHT22;40536;53.194;5.728;2022-07-29T10:44:13;20.20;99.90
54642;DHT22;40536;53.194;5.728;2022-07-29T10:46:40;20.20;99.90
54642;DHT22;40536;53.194;5.728;2022-07-29T10:49:26;20.30;99.90
54642;DHT22;40536;53.194;5.728;2022-07-29T10:52:08;20.40;99.90
54642;DHT22;40536;53.194;5.728;2022-07-29T10:54:44;20.50;99.90
54642;DHT22;40536;53.194;5.728;2022-07-29T11:05:15;20.90;99.90
54642;DHT22;40536;53.194;5.728;2022-07-29T11:10:39;20.90;99.90
54642;DHT22;40536;53.194;5.728;2022-07-29T11:13:05;21.00;99.90
54642;DHT22;40536;53.194;5.728;2022-07-29T11:15:54;21.00;99.90
54642;DHT22;40536;53.194;5.728;2022-07-29T11:18:20;21.10;99.90
54642;DHT22;40536;53.194;5.728;2022-07-29T11:20:48;21.10;99.90
54642;DHT22;40536;53.194;5.728;2022-07-29T11:29:01;21.10;99.90
54642;DHT22;40536;53.194;5.728;2022-07-29T11:33:56;21.10;99.90
54642;DHT22;40536;53.194;5.728;2022-07-29T11:36:22;21.10;99.90
54642;DHT22;40536;53.194;5.728;2022-07-29T11:38:48;21.10;99.90
54642;DHT22;40536;53.194;5.728;2022-07-29T11:41:20;21.10;99.90
54642;DHT22;40536;53.194;5.728;2022-07-29T11:43:57;21.20;99.90
54642;DHT22;40536;53.194;5.728;2022-07-29T11:49:11;21.30;99.90
54642;DHT22;40536;53.194;5.728;2022-07-29T11:51:38;21.40;99.90
54642;DHT22;40536;53.194;5.728;2022-07-29T11:54:04;21.50;99.90
54642;DHT22;40536;53.194;5.728;2022-07-29T11:56:31;21.70;99.90
54642;DHT22;40536;53.194;5.728;2022-07-29T11:59:07;21.80;99.90
54642;DHT22;40536;53.194;5.728;2022-07-29T12:01:35;21.80;99.90
54642;DHT22;40536;53.194;5.728;2022-07-29T12:04:07;21.80;99.90
54642;DHT22;40536;53.194;5.728;2022-07-29T12:06:34;21.90;99.90
54642;DHT22;40536;53.194;5.728;2022-07-29T12:09:00;22.00;99.90
54642;DHT22;40536;53.194;5.728;2022-07-29T12:11:26;22.10;99.90
54642;DHT22;40536;53.194;5.728;2022-07-29T12:13:52;22.20;99.90
54642;DHT22;40536;53.194;5.728;2022-07-29T12:16:21;22.30;99.90
54642;DHT22;40536;53.194;5.728;2022-07-29T12:19:00;22.40;99.90
54642;DHT22;40536;53.194;5.728;2022-07-29T12:21:26;22.60;99.90
54642;DHT22;40536;53.194;5.728;2022-07-29T12:23:53;22.70;99.90
54642;DHT22;40536;53.194;5.728;2022-07-29T12:26:19;22.70;99.90
54642;DHT22;40536;53.194;5.728;2022-07-29T12:28:45;22.90;99.90
54642;DHT22;40536;53.194;5.728;2022-07-29T12:31:15;23.10;99.90
54642;DHT22;40536;53.194;5.728;2022-07-29T12:33:41;23.20;99.90
54642;DHT22;40536;53.194;5.728;2022-07-29T12:36:08;23.30;99.90
54642;DHT22;40536;53.194;5.728;2022-07-29T12:38:40;23.40;99.90
54642;DHT22;40536;53.194;5.728;2022-07-29T12:41:06;23.40;99.90
54642;DHT22;40536;53.194;5.728;2022-07-29T12:43:32;23.50;99.90
54642;DHT22;40536;53.194;5.728;2022-07-29T12:46:12;23.70;99.90
54642;DHT22;40536;53.194;5.728;2022-07-29T12:48:40;23.80;99.90
54642;DHT22;40536;53.194;5.728;2022-07-29T12:51:07;23.90;99.90
54642;DHT22;40536;53.194;5.728;2022-07-29T12:53:34;24.10;99.90
54642;DHT22;40536;53.194;5.728;2022-07-29T12:56:00;24.30;99.90
54642;DHT22;40536;53.194;5.728;2022-07-29T12:58:36;24.40;99.90
54642;DHT22;40536;53.194;5.728;2022-07-29T13:01:11;24.40;99.90
54642;DHT22;40536;53.194;5.728;2022-07-29T13:03:48;24.50;99.90
54642;DHT22;40536;53.194;5.728;2022-07-29T13:06:44;24.50;99.90
54642;DHT22;40536;53.194;5.728;2022-07-29T13:09:18;24.70;99.90
54642;DHT22;40536;53.194;5.728;2022-07-29T13:11:52;25.10;99.90
54642;DHT22;40536;53.194;5.728;2022-07-29T13:17:20;25.30;99.90
54642;DHT22;40536;53.194;5.728;2022-07-29T13:20:04;25.40;99.90
54642;DHT22;40536;53.194;5.728;2022-07-29T13:22:30;25.60;99.90
54642;DHT22;40536;53.194;5.728;2022-07-29T13:24:57;25.80;99.90
54642;DHT22;40536;53.194;5.728;2022-07-29T13:27:25;26.00;99.90
54642;DHT22;40536;53.194;5.728;2022-07-29T13:29:52;26.00;99.90
54642;DHT22;40536;53.194;5.728;2022-07-29T13:32:19;26.10;99.90
54642;DHT22;40536;53.194;5.728;2022-07-29T13:34:45;26.00;99.90
54642;DHT22;40536;53.194;5.728;2022-07-29T13:37:10;25.90;99.90
54642;DHT22;40536;53.194;5.728;2022-07-29T13:39:36;25.80;99.90
54642;DHT22;40536;53.194;5.728;2022-07-29T13:42:03;25.70;99.90
54642;DHT22;40536;53.194;5.728;2022-07-29T13:44:29;25.70;99.90
54642;DHT22;40536;53.194;5.728;2022-07-29T13:46:55;25.70;99.90
54642;DHT22;40536;53.194;5.728;2022-07-29T13:49:21;25.60;99.90
54642;DHT22;40536;53.194;5.728;2022-07-29T13:51:48;25.50;99.90
54642;DHT22;40536;53.194;5.728;2022-07-29T13:54:14;25.50;99.90
54642;DHT22;40536;53.194;5.728;2022-07-29T13:56:40;25.60;99.90
54642;DHT22;40536;53.194;5.728;2022-07-29T13:59:06;26.00;99.90
54642;DHT22;40536;53.194;5.728;2022-07-29T14:01:36;26.40;99.90
54642;DHT22;40536;53.194;5.728;2022-07-29T14:04:02;26.80;99.90
54642;DHT22;40536;53.194;5.728;2022-07-29T14:06:28;27.20;99.90
54642;DHT22;40536;53.194;5.728;2022-07-29T14:08:53;27.60;99.90
54642;DHT22;40536;53.194;5.728;2022-07-29T14:11:19;27.90;99.90
54642;DHT22;40536;53.194;5.728;2022-07-29T14:13:45;28.20;99.90
54642;DHT22;40536;53.194;5.728;2022-07-29T14:16:10;28.20;99.90
54642;DHT22;40536;53.194;5.728;2022-07-29T14:18:36;28.10;99.90
54642;DHT22;40536;53.194;5.728;2022-07-29T14:21:02;28.10;99.90
54642;DHT22;40536;53.194;5.728;2022-07-29T14:23:28;28.30;99.90
54642;DHT22;40536;53.194;5.728;2022-07-29T14:25:53;28.40;99.90
54642;DHT22;40536;53.194;5.728;2022-07-29T14:28:19;28.40;99.90
54642;DHT22;40536;53.194;5.728;2022-07-29T14:30:45;28.00;99.30
54642;DHT22;40536;53.194;5.728;2022-07-29T14:33:10;27.80;99.70
54642;DHT22;40536;53.194;5.728;2022-07-29T14:35:36;27.90;99.90
54642;DHT22;40536;53.194;5.728;2022-07-29T14:38:02;28.00;99.70
54642;DHT22;40536;53.194;5.728;2022-07-29T14:40:28;28.00;99.60
54642;DHT22;40536;53.194;5.728;2022-07-29T14:42:53;27.90;99.40
54642;DHT22;40536;53.194;5.728;2022-07-29T14:45:19;27.90;99.00
54642;DHT22;40536;53.194;5.728;2022-07-29T14:47:44;27.80;99.00
54642;DHT22;40536;53.194;5.728;2022-07-29T14:50:10;27.80;99.10
54642;DHT22;40536;53.194;5.728;2022-07-29T14:52:36;27.80;98.80
54642;DHT22;40536;53.194;5.728;2022-07-29T14:55:03;27.70;98.70
54642;DHT22;40536;53.194;5.728;2022-07-29T14:57:29;27.80;98.70
54642;DHT22;40536;53.194;5.728;2022-07-29T14:59:55;28.00;98.70
54642;DHT22;40536;53.194;5.728;2022-07-29T15:02:21;28.10;99.00
54642;DHT22;40536;53.194;5.728;2022-07-29T15:04:46;28.20;98.50
54642;DHT22;40536;53.194;5.728;2022-07-29T15:07:14;28.40;98.50
54642;DHT22;40536;53.194;5.728;2022-07-29T15:09:39;28.50;98.30
54642;DHT22;40536;53.194;5.728;2022-07-29T15:12:06;28.60;97.90
54642;DHT22;40536;53.194;5.728;2022-07-29T15:14:32;28.70;97.80
54642;DHT22;40536;53.194;5.728;2022-07-29T15:16:57;28.80;97.70
54642;DHT22;40536;53.194;5.728;2022-07-29T15:19:23;28.80;97.70
54642;DHT22;40536;53.194;5.728;2022-07-29T15:21:49;28.70;97.50
54642;DHT22;40536;53.194;5.728;2022-07-29T15:24:16;28.80;97.90
54642;DHT22;40536;53.194;5.728;2022-07-29T15:26:42;28.80;97.90
54642;DHT22;40536;53.194;5.728;2022-07-29T15:29:08;28.70;97.60
54642;DHT22;40536;53.194;5.728;2022-07-29T15:31:34;28.70;97.50
54642;DHT22;40536;53.194;5.728;2022-07-29T15:33:59;28.50;97.40
54642;DHT22;40536;53.194;5.728;2022-07-29T15:36:25;28.30;97.40
54642;DHT22;40536;53.194;5.728;2022-07-29T15:38:53;28.10;97.30
54642;DHT22;40536;53.194;5.728;2022-07-29T15:41:20;28.00;97.30
54642;DHT22;40536;53.194;5.728;2022-07-29T15:43:46;27.90;97.40
54642;DHT22;40536;53.194;5.728;2022-07-29T15:46:17;27.90;97.30
54642;DHT22;40536;53.194;5.728;2022-07-29T15:49:03;27.90;97.50
54642;DHT22;40536;53.194;5.728;2022-07-29T15:51:29;27.90;97.30
54642;DHT22;40536;53.194;5.728;2022-07-29T15:53:54;28.00;97.40
54642;DHT22;40536;53.194;5.728;2022-07-29T15:56:21;28.10;97.60
54642;DHT22;40536;53.194;5.728;2022-07-29T15:58:47;28.30;97.50
54642;DHT22;40536;53.194;5.728;2022-07-29T16:01:12;28.50;97.40
54642;DHT22;40536;53.194;5.728;2022-07-29T16:03:38;28.70;97.10
54642;DHT22;40536;53.194;5.728;2022-07-29T16:06:04;28.80;97.10
54642;DHT22;40536;53.194;5.728;2022-07-29T16:08:29;28.70;97.00
54642;DHT22;40536;53.194;5.728;2022-07-29T16:10:55;28.70;97.20
54642;DHT22;40536;53.194;5.728;2022-07-29T16:13:20;28.70;97.40
54642;DHT22;40536;53.194;5.728;2022-07-29T16:15:46;28.60;97.50
54642;DHT22;40536;53.194;5.728;2022-07-29T16:18:12;28.30;97.40
54642;DHT22;40536;53.194;5.728;2022-07-29T16:20:39;28.00;98.00